sensor_id;sensor_type;location;lat;lon;timestamp;P1;durP1;ratioP1;P2;durP2;ratioP2
51560;SDS011;37654;51.262;17.058;2023-03-13T00:01:36;21.20;;;11.10;;
51560;SDS011;37654;51.262;17.058;2023-03-13T00:04:01;21.33;;;11.50;;
51560;SDS011;37654;51.262;17.058;2023-03-13T00:06:31;21.85;;;10.45;;
51560;SDS011;37654;51.262;17.058;2023-03-13T00:08:56;19.13;;;9.90;;
51560;SDS011;37654;51.262;17.058;2023-03-13T00:11:24;18.77;;;10.77;;
51560;SDS011;37654;51.262;17.058;2023-03-13T00:13:52;20.67;;;9.55;;
51560;SDS011;37654;51.262;17.058;2023-03-13T00:16:18;14.32;;;7.65;;
51560;SDS011;37654;51.262;17.058;2023-03-13T00:18:44;15.52;;;7.60;;
51560;SDS011;37654;51.262;17.058;2023-03-13T00:21:10;14.00;;;6.93;;
51560;SDS011;37654;51.262;17.058;2023-03-13T00:23:35;14.70;;;7.57;;
51560;SDS011;37654;51.262;17.058;2023-03-13T00:26:05;12.60;;;6.70;;
51560;SDS011;37654;51.262;17.058;2023-03-13T00:28:31;20.20;;;8.52;;
51560;SDS011;37654;51.262;17.058;2023-03-13T00:33:37;33.03;;;13.07;;
51560;SDS011;37654;51.262;17.058;2023-03-13T00:36:04;18.75;;;8.70;;
51560;SDS011;37654;51.262;17.058;2023-03-13T00:38:30;18.17;;;7.90;;
51560;SDS011;37654;51.262;17.058;2023-03-13T00:41:03;27.00;;;11.70;;
51560;SDS011;37654;51.262;17.058;2023-03-13T00:43:28;21.58;;;9.27;;
51560;SDS011;37654;51.262;17.058;2023-03-13T00:45:54;14.38;;;6.70;;
51560;SDS011;37654;51.262;17.058;2023-03-13T00:48:20;9.30;;;5.85;;
51560;SDS011;37654;51.262;17.058;2023-03-13T00:50:45;10.02;;;4.65;;
51560;SDS011;37654;51.262;17.058;2023-03-13T00:53:10;10.98;;;4.63;;
51560;SDS011;37654;51.262;17.058;2023-03-13T00:55:36;11.73;;;5.38;;
51560;SDS011;37654;51.262;17.058;2023-03-13T00:58:01;11.50;;;4.88;;
51560;SDS011;37654;51.262;17.058;2023-03-13T01:00:26;10.05;;;4.47;;
51560;SDS011;37654;51.262;17.058;2023-03-13T01:02:52;7.32;;;4.57;;
51560;SDS011;37654;51.262;17.058;2023-03-13T01:05:17;9.77;;;5.68;;
51560;SDS011;37654;51.262;17.058;2023-03-13T01:07:42;8.77;;;4.78;;
51560;SDS011;37654;51.262;17.058;2023-03-13T01:10:08;9.95;;;5.40;;
51560;SDS011;37654;51.262;17.058;2023-03-13T01:12:33;8.20;;;5.20;;
51560;SDS011;37654;51.262;17.058;2023-03-13T01:14:58;10.68;;;5.40;;
51560;SDS011;37654;51.262;17.058;2023-03-13T01:17:23;9.10;;;4.90;;
51560;SDS011;37654;51.262;17.058;2023-03-13T01:19:49;7.82;;;4.60;;
51560;SDS011;37654;51.262;17.058;2023-03-13T01:22:14;12.65;;;5.95;;
51560;SDS011;37654;51.262;17.058;2023-03-13T01:24:39;10.10;;;5.28;;
51560;SDS011;37654;51.262;17.058;2023-03-13T01:27:05;10.20;;;5.68;;
51560;SDS011;37654;51.262;17.058;2023-03-13T01:29:30;10.52;;;5.28;;
51560;SDS011;37654;51.262;17.058;2023-03-13T01:31:55;10.52;;;5.05;;
51560;SDS011;37654;51.262;17.058;2023-03-13T01:34:20;10.95;;;5.60;;
51560;SDS011;37654;51.262;17.058;2023-03-13T01:36:46;13.18;;;5.32;;
51560;SDS011;37654;51.262;17.058;2023-03-13T01:39:14;7.80;;;4.30;;
51560;SDS011;37654;51.262;17.058;2023-03-13T01:41:40;8.80;;;4.03;;
51560;SDS011;37654;51.262;17.058;2023-03-13T01:44:08;8.07;;;3.60;;
51560;SDS011;37654;51.262;17.058;2023-03-13T01:46:41;8.65;;;4.38;;
51560;SDS011;37654;51.262;17.058;2023-03-13T01:51:33;9.50;;;3.67;;
51560;SDS011;37654;51.262;17.058;2023-03-13T01:54:01;9.20;;;4.15;;
51560;SDS011;37654;51.262;17.058;2023-03-13T01:56:30;9.93;;;4.15;;
51560;SDS011;37654;51.262;17.058;2023-03-13T01:58:58;7.22;;;3.00;;
51560;SDS011;37654;51.262;17.058;2023-03-13T02:01:24;7.60;;;3.90;;
51560;SDS011;37654;51.262;17.058;2023-03-13T02:03:50;6.82;;;3.78;;
51560;SDS011;37654;51.262;17.058;2023-03-13T02:06:16;11.48;;;4.78;;
51560;SDS011;37654;51.262;17.058;2023-03-13T02:08:43;11.98;;;5.05;;
51560;SDS011;37654;51.262;17.058;2023-03-13T02:11:15;9.68;;;4.75;;
51560;SDS011;37654;51.262;17.058;2023-03-13T02:13:43;9.95;;;4.93;;
51560;SDS011;37654;51.262;17.058;2023-03-13T02:16:08;12.48;;;4.85;;
51560;SDS011;37654;51.262;17.058;2023-03-13T02:18:35;9.55;;;4.18;;
51560;SDS011;37654;51.262;17.058;2023-03-13T02:21:07;8.45;;;4.78;;
51560;SDS011;37654;51.262;17.058;2023-03-13T02:23:35;12.65;;;4.68;;
51560;SDS011;37654;51.262;17.058;2023-03-13T02:26:03;9.00;;;4.40;;
51560;SDS011;37654;51.262;17.058;2023-03-13T02:28:32;10.98;;;4.25;;
51560;SDS011;37654;51.262;17.058;2023-03-13T02:30:58;9.55;;;4.65;;
51560;SDS011;37654;51.262;17.058;2023-03-13T02:33:30;8.18;;;4.82;;
51560;SDS011;37654;51.262;17.058;2023-03-13T02:35:57;10.45;;;5.55;;
51560;SDS011;37654;51.262;17.058;2023-03-13T02:38:24;11.35;;;6.05;;
51560;SDS011;37654;51.262;17.058;2023-03-13T02:40:49;17.75;;;8.52;;
51560;SDS011;37654;51.262;17.058;2023-03-13T02:43:26;22.60;;;10.32;;
51560;SDS011;37654;51.262;17.058;2023-03-13T02:46:00;15.63;;;8.52;;
51560;SDS011;37654;51.262;17.058;2023-03-13T02:48:29;17.42;;;8.25;;
51560;SDS011;37654;51.262;17.058;2023-03-13T02:50:54;13.57;;;7.03;;
51560;SDS011;37654;51.262;17.058;2023-03-13T02:53:20;8.85;;;4.32;;
51560;SDS011;37654;51.262;17.058;2023-03-13T02:55:45;9.13;;;4.97;;
51560;SDS011;37654;51.262;17.058;2023-03-13T02:58:10;10.10;;;4.70;;
51560;SDS011;37654;51.262;17.058;2023-03-13T03:00:35;8.88;;;5.10;;
51560;SDS011;37654;51.262;17.058;2023-03-13T03:03:01;11.55;;;4.45;;
51560;SDS011;37654;51.262;17.058;2023-03-13T03:05:26;10.55;;;5.20;;
51560;SDS011;37654;51.262;17.058;2023-03-13T03:07:51;10.77;;;6.00;;
51560;SDS011;37654;51.262;17.058;2023-03-13T03:10:17;10.52;;;5.60;;
51560;SDS011;37654;51.262;17.058;2023-03-13T03:12:42;12.88;;;6.20;;
51560;SDS011;37654;51.262;17.058;2023-03-13T03:15:08;12.25;;;5.50;;
51560;SDS011;37654;51.262;17.058;2023-03-13T03:17:33;10.90;;;5.00;;
51560;SDS011;37654;51.262;17.058;2023-03-13T03:19:58;10.80;;;5.00;;
51560;SDS011;37654;51.262;17.058;2023-03-13T03:22:24;10.25;;;5.75;;
51560;SDS011;37654;51.262;17.058;2023-03-13T03:24:49;11.82;;;5.82;;
51560;SDS011;37654;51.262;17.058;2023-03-13T03:27:14;10.90;;;5.72;;
51560;SDS011;37654;51.262;17.058;2023-03-13T03:29:40;10.15;;;6.40;;
51560;SDS011;37654;51.262;17.058;2023-03-13T03:32:05;11.80;;;6.18;;
51560;SDS011;37654;51.262;17.058;2023-03-13T03:34:30;13.57;;;6.25;;
51560;SDS011;37654;51.262;17.058;2023-03-13T03:36:56;11.52;;;6.07;;
51560;SDS011;37654;51.262;17.058;2023-03-13T03:39:21;9.57;;;6.57;;
51560;SDS011;37654;51.262;17.058;2023-03-13T03:41:46;11.20;;;6.28;;
51560;SDS011;37654;51.262;17.058;2023-03-13T03:44:12;9.48;;;5.97;;
51560;SDS011;37654;51.262;17.058;2023-03-13T03:46:37;10.80;;;6.00;;
51560;SDS011;37654;51.262;17.058;2023-03-13T03:49:02;17.27;;;8.57;;
51560;SDS011;37654;51.262;17.058;2023-03-13T03:51:27;11.23;;;6.85;;
51560;SDS011;37654;51.262;17.058;2023-03-13T03:53:53;13.87;;;6.97;;
51560;SDS011;37654;51.262;17.058;2023-03-13T03:56:18;14.20;;;7.82;;
51560;SDS011;37654;51.262;17.058;2023-03-13T03:58:44;15.43;;;7.85;;
51560;SDS011;37654;51.262;17.058;2023-03-13T04:01:09;14.35;;;7.80;;
51560;SDS011;37654;51.262;17.058;2023-03-13T04:03:34;19.40;;;9.15;;
51560;SDS011;37654;51.262;17.058;2023-03-13T04:05:59;20.35;;;8.98;;
51560;SDS011;37654;51.262;17.058;2023-03-13T04:08:25;16.48;;;8.85;;
51560;SDS011;37654;51.262;17.058;2023-03-13T04:10:50;16.10;;;9.82;;
51560;SDS011;37654;51.262;17.058;2023-03-13T04:13:15;16.85;;;10.05;;
51560;SDS011;37654;51.262;17.058;2023-03-13T04:15:41;18.48;;;9.35;;
51560;SDS011;37654;51.262;17.058;2023-03-13T04:18:06;16.98;;;9.02;;
51560;SDS011;37654;51.262;17.058;2023-03-13T04:20:32;17.95;;;9.65;;
51560;SDS011;37654;51.262;17.058;2023-03-13T04:22:57;20.33;;;9.90;;
51560;SDS011;37654;51.262;17.058;2023-03-13T04:25:22;15.43;;;9.75;;
51560;SDS011;37654;51.262;17.058;2023-03-13T04:27:47;18.80;;;11.07;;
51560;SDS011;37654;51.262;17.058;2023-03-13T04:30:13;19.77;;;10.50;;
51560;SDS011;37654;51.262;17.058;2023-03-13T04:32:38;20.20;;;11.20;;
51560;SDS011;37654;51.262;17.058;2023-03-13T04:35:04;24.10;;;11.63;;
51560;SDS011;37654;51.262;17.058;2023-03-13T04:37:29;20.25;;;11.00;;
51560;SDS011;37654;51.262;17.058;2023-03-13T04:39:54;20.85;;;10.85;;
51560;SDS011;37654;51.262;17.058;2023-03-13T04:42:19;25.40;;;11.93;;
51560;SDS011;37654;51.262;17.058;2023-03-13T04:44:45;24.58;;;11.45;;
51560;SDS011;37654;51.262;17.058;2023-03-13T04:47:10;21.85;;;12.07;;
51560;SDS011;37654;51.262;17.058;2023-03-13T04:49:35;22.77;;;11.60;;
51560;SDS011;37654;51.262;17.058;2023-03-13T04:52:01;24.48;;;12.80;;
51560;SDS011;37654;51.262;17.058;2023-03-13T04:54:26;25.00;;;12.52;;
51560;SDS011;37654;51.262;17.058;2023-03-13T04:56:51;28.00;;;13.32;;
51560;SDS011;37654;51.262;17.058;2023-03-13T04:59:17;23.98;;;11.40;;
51560;SDS011;37654;51.262;17.058;2023-03-13T05:01:42;23.85;;;13.05;;
51560;SDS011;37654;51.262;17.058;2023-03-13T05:04:08;24.45;;;12.88;;
51560;SDS011;37654;51.262;17.058;2023-03-13T05:06:33;25.70;;;13.02;;
51560;SDS011;37654;51.262;17.058;2023-03-13T05:08:58;24.45;;;11.48;;
51560;SDS011;37654;51.262;17.058;2023-03-13T05:11:24;19.52;;;10.65;;
51560;SDS011;37654;51.262;17.058;2023-03-13T05:13:49;18.88;;;9.98;;
51560;SDS011;37654;51.262;17.058;2023-03-13T05:16:14;19.90;;;10.43;;
51560;SDS011;37654;51.262;17.058;2023-03-13T05:18:39;26.33;;;11.85;;
51560;SDS011;37654;51.262;17.058;2023-03-13T05:21:05;25.70;;;11.60;;
51560;SDS011;37654;51.262;17.058;2023-03-13T05:23:30;20.67;;;11.95;;
51560;SDS011;37654;51.262;17.058;2023-03-13T05:25:56;23.08;;;12.15;;
51560;SDS011;37654;51.262;17.058;2023-03-13T05:28:21;20.33;;;11.55;;
51560;SDS011;37654;51.262;17.058;2023-03-13T05:30:46;22.17;;;12.07;;
51560;SDS011;37654;51.262;17.058;2023-03-13T05:33:12;22.67;;;12.05;;
51560;SDS011;37654;51.262;17.058;2023-03-13T05:35:37;22.55;;;12.65;;
51560;SDS011;37654;51.262;17.058;2023-03-13T05:38:02;27.58;;;13.85;;
51560;SDS011;37654;51.262;17.058;2023-03-13T05:40:27;29.90;;;15.10;;
51560;SDS011;37654;51.262;17.058;2023-03-13T05:42:53;26.17;;;14.07;;
51560;SDS011;37654;51.262;17.058;2023-03-13T05:45:18;26.60;;;13.85;;
51560;SDS011;37654;51.262;17.058;2023-03-13T05:47:43;22.27;;;14.13;;
51560;SDS011;37654;51.262;17.058;2023-03-13T05:50:09;25.38;;;13.73;;
51560;SDS011;37654;51.262;17.058;2023-03-13T05:52:34;25.75;;;13.82;;
51560;SDS011;37654;51.262;17.058;2023-03-13T05:55:00;21.55;;;12.32;;
51560;SDS011;37654;51.262;17.058;2023-03-13T05:57:25;27.08;;;12.90;;
51560;SDS011;37654;51.262;17.058;2023-03-13T05:59:50;23.40;;;13.10;;
51560;SDS011;37654;51.262;17.058;2023-03-13T06:02:15;24.58;;;13.48;;
51560;SDS011;37654;51.262;17.058;2023-03-13T06:04:41;28.10;;;12.80;;
51560;SDS011;37654;51.262;17.058;2023-03-13T06:07:06;22.05;;;12.07;;
51560;SDS011;37654;51.262;17.058;2023-03-13T06:09:32;22.15;;;12.50;;
51560;SDS011;37654;51.262;17.058;2023-03-13T06:11:58;27.98;;;14.35;;
51560;SDS011;37654;51.262;17.058;2023-03-13T06:14:23;28.45;;;12.75;;
51560;SDS011;37654;51.262;17.058;2023-03-13T06:16:48;28.08;;;12.88;;
51560;SDS011;37654;51.262;17.058;2023-03-13T06:19:14;31.35;;;13.27;;
51560;SDS011;37654;51.262;17.058;2023-03-13T06:21:39;28.05;;;13.05;;
51560;SDS011;37654;51.262;17.058;2023-03-13T06:24:05;28.08;;;13.00;;
51560;SDS011;37654;51.262;17.058;2023-03-13T06:26:30;24.77;;;12.48;;
51560;SDS011;37654;51.262;17.058;2023-03-13T06:28:55;24.65;;;11.93;;
51560;SDS011;37654;51.262;17.058;2023-03-13T06:31:20;25.15;;;12.25;;
51560;SDS011;37654;51.262;17.058;2023-03-13T06:33:46;28.08;;;12.82;;
51560;SDS011;37654;51.262;17.058;2023-03-13T06:36:11;28.02;;;12.50;;
51560;SDS011;37654;51.262;17.058;2023-03-13T06:38:37;27.13;;;12.95;;
51560;SDS011;37654;51.262;17.058;2023-03-13T06:41:02;28.15;;;11.68;;
51560;SDS011;37654;51.262;17.058;2023-03-13T06:43:27;26.58;;;12.40;;
51560;SDS011;37654;51.262;17.058;2023-03-13T06:45:53;33.25;;;13.30;;
51560;SDS011;37654;51.262;17.058;2023-03-13T06:48:18;19.08;;;9.63;;
51560;SDS011;37654;51.262;17.058;2023-03-13T06:50:44;26.85;;;10.63;;
51560;SDS011;37654;51.262;17.058;2023-03-13T06:53:13;22.02;;;10.70;;
51560;SDS011;37654;51.262;17.058;2023-03-13T06:55:38;21.92;;;10.95;;
51560;SDS011;37654;51.262;17.058;2023-03-13T06:58:03;20.90;;;10.25;;
51560;SDS011;37654;51.262;17.058;2023-03-13T07:00:29;21.88;;;9.25;;
51560;SDS011;37654;51.262;17.058;2023-03-13T07:02:54;24.33;;;9.23;;
51560;SDS011;37654;51.262;17.058;2023-03-13T07:05:19;20.73;;;10.65;;
51560;SDS011;37654;51.262;17.058;2023-03-13T07:07:45;22.15;;;8.25;;
51560;SDS011;37654;51.262;17.058;2023-03-13T07:10:10;21.52;;;9.18;;
51560;SDS011;37654;51.262;17.058;2023-03-13T07:12:36;24.10;;;9.38;;
51560;SDS011;37654;51.262;17.058;2023-03-13T07:15:02;18.15;;;8.23;;
51560;SDS011;37654;51.262;17.058;2023-03-13T07:17:27;17.88;;;8.45;;
51560;SDS011;37654;51.262;17.058;2023-03-13T07:19:52;21.73;;;8.82;;
51560;SDS011;37654;51.262;17.058;2023-03-13T07:22:18;19.07;;;7.00;;
51560;SDS011;37654;51.262;17.058;2023-03-13T07:24:43;16.23;;;7.63;;
51560;SDS011;37654;51.262;17.058;2023-03-13T07:27:08;16.60;;;6.37;;
51560;SDS011;37654;51.262;17.058;2023-03-13T07:29:33;17.35;;;7.65;;
51560;SDS011;37654;51.262;17.058;2023-03-13T07:31:59;17.55;;;6.88;;
51560;SDS011;37654;51.262;17.058;2023-03-13T07:34:24;16.23;;;6.57;;
51560;SDS011;37654;51.262;17.058;2023-03-13T07:36:49;17.73;;;7.03;;
51560;SDS011;37654;51.262;17.058;2023-03-13T07:39:15;16.50;;;6.90;;
51560;SDS011;37654;51.262;17.058;2023-03-13T07:41:40;13.73;;;5.43;;
51560;SDS011;37654;51.262;17.058;2023-03-13T07:44:06;13.00;;;5.32;;
51560;SDS011;37654;51.262;17.058;2023-03-13T07:46:31;13.23;;;5.55;;
51560;SDS011;37654;51.262;17.058;2023-03-13T07:48:57;15.50;;;6.73;;
51560;SDS011;37654;51.262;17.058;2023-03-13T07:51:23;14.95;;;6.75;;
51560;SDS011;37654;51.262;17.058;2023-03-13T07:53:49;14.55;;;6.03;;
51560;SDS011;37654;51.262;17.058;2023-03-13T07:56:17;12.70;;;5.25;;
51560;SDS011;37654;51.262;17.058;2023-03-13T07:58:43;12.45;;;5.13;;
51560;SDS011;37654;51.262;17.058;2023-03-13T08:01:09;19.30;;;6.60;;
51560;SDS011;37654;51.262;17.058;2023-03-13T08:03:35;15.18;;;6.18;;
51560;SDS011;37654;51.262;17.058;2023-03-13T08:06:01;15.25;;;5.75;;
51560;SDS011;37654;51.262;17.058;2023-03-13T08:08:27;17.80;;;6.68;;
51560;SDS011;37654;51.262;17.058;2023-03-13T08:10:53;21.45;;;5.47;;
51560;SDS011;37654;51.262;17.058;2023-03-13T08:13:22;21.10;;;7.20;;
51560;SDS011;37654;51.262;17.058;2023-03-13T08:15:48;20.60;;;6.40;;
51560;SDS011;37654;51.262;17.058;2023-03-13T08:18:13;16.23;;;5.63;;
51560;SDS011;37654;51.262;17.058;2023-03-13T08:20:38;14.48;;;5.72;;
51560;SDS011;37654;51.262;17.058;2023-03-13T08:23:04;18.30;;;5.68;;
51560;SDS011;37654;51.262;17.058;2023-03-13T08:25:29;18.63;;;5.05;;
51560;SDS011;37654;51.262;17.058;2023-03-13T08:27:54;14.27;;;6.07;;
51560;SDS011;37654;51.262;17.058;2023-03-13T08:30:19;19.55;;;6.32;;
51560;SDS011;37654;51.262;17.058;2023-03-13T08:32:45;16.80;;;4.80;;
51560;SDS011;37654;51.262;17.058;2023-03-13T08:35:10;18.35;;;5.75;;
51560;SDS011;37654;51.262;17.058;2023-03-13T08:37:35;14.83;;;5.07;;
51560;SDS011;37654;51.262;17.058;2023-03-13T08:40:01;19.17;;;6.07;;
51560;SDS011;37654;51.262;17.058;2023-03-13T08:42:27;17.08;;;5.28;;
51560;SDS011;37654;51.262;17.058;2023-03-13T08:44:52;15.67;;;5.53;;
51560;SDS011;37654;51.262;17.058;2023-03-13T08:47:17;19.23;;;5.33;;
51560;SDS011;37654;51.262;17.058;2023-03-13T08:49:43;12.97;;;4.50;;
51560;SDS011;37654;51.262;17.058;2023-03-13T08:52:09;13.70;;;4.50;;
51560;SDS011;37654;51.262;17.058;2023-03-13T08:54:34;13.27;;;5.15;;
51560;SDS011;37654;51.262;17.058;2023-03-13T08:56:59;13.90;;;5.18;;
51560;SDS011;37654;51.262;17.058;2023-03-13T08:59:25;13.73;;;4.60;;
51560;SDS011;37654;51.262;17.058;2023-03-13T09:01:50;13.35;;;4.70;;
51560;SDS011;37654;51.262;17.058;2023-03-13T09:04:16;15.52;;;5.03;;
51560;SDS011;37654;51.262;17.058;2023-03-13T09:06:41;17.38;;;4.45;;
51560;SDS011;37654;51.262;17.058;2023-03-13T09:09:07;25.85;;;5.80;;
51560;SDS011;37654;51.262;17.058;2023-03-13T09:11:32;18.20;;;5.45;;
51560;SDS011;37654;51.262;17.058;2023-03-13T09:13:58;22.20;;;4.78;;
51560;SDS011;37654;51.262;17.058;2023-03-13T09:16:24;17.45;;;4.90;;
51560;SDS011;37654;51.262;17.058;2023-03-13T09:18:49;16.45;;;4.95;;
51560;SDS011;37654;51.262;17.058;2023-03-13T09:21:16;19.50;;;4.88;;
51560;SDS011;37654;51.262;17.058;2023-03-13T09:23:42;17.27;;;4.40;;
51560;SDS011;37654;51.262;17.058;2023-03-13T09:26:07;16.92;;;4.03;;
51560;SDS011;37654;51.262;17.058;2023-03-13T09:28:33;17.90;;;4.20;;
51560;SDS011;37654;51.262;17.058;2023-03-13T09:31:08;15.90;;;4.22;;
51560;SDS011;37654;51.262;17.058;2023-03-13T09:33:34;14.85;;;3.70;;
51560;SDS011;37654;51.262;17.058;2023-03-13T09:35:59;11.00;;;4.30;;
51560;SDS011;37654;51.262;17.058;2023-03-13T09:38:24;23.63;;;3.97;;
51560;SDS011;37654;51.262;17.058;2023-03-13T09:40:50;14.90;;;4.35;;
51560;SDS011;37654;51.262;17.058;2023-03-13T09:45:51;15.15;;;3.30;;
51560;SDS011;37654;51.262;17.058;2023-03-13T09:48:37;11.88;;;2.67;;
51560;SDS011;37654;51.262;17.058;2023-03-13T09:51:25;17.02;;;2.95;;
51560;SDS011;37654;51.262;17.058;2023-03-13T09:56:22;10.13;;;3.55;;
51560;SDS011;37654;51.262;17.058;2023-03-13T09:58:54;14.70;;;3.70;;
51560;SDS011;37654;51.262;17.058;2023-03-13T10:01:23;11.88;;;3.40;;
51560;SDS011;37654;51.262;17.058;2023-03-13T10:04:33;17.00;;;3.00;;
51560;SDS011;37654;51.262;17.058;2023-03-13T10:06:39;10.82;;;3.78;;
51560;SDS011;37654;51.262;17.058;2023-03-13T10:09:19;13.85;;;3.20;;
51560;SDS011;37654;51.262;17.058;2023-03-13T10:14:34;11.70;;;3.40;;
51560;SDS011;37654;51.262;17.058;2023-03-13T10:17:09;11.63;;;3.83;;
51560;SDS011;37654;51.262;17.058;2023-03-13T10:19:39;13.88;;;3.33;;
51560;SDS011;37654;51.262;17.058;2023-03-13T10:22:16;11.65;;;3.17;;
51560;SDS011;37654;51.262;17.058;2023-03-13T10:27:21;15.73;;;4.38;;
51560;SDS011;37654;51.262;17.058;2023-03-13T10:29:47;14.77;;;4.50;;
51560;SDS011;37654;51.262;17.058;2023-03-13T10:32:13;13.75;;;3.80;;
51560;SDS011;37654;51.262;17.058;2023-03-13T10:34:47;14.25;;;3.70;;
51560;SDS011;37654;51.262;17.058;2023-03-13T10:37:14;16.15;;;4.22;;
51560;SDS011;37654;51.262;17.058;2023-03-13T10:39:41;14.65;;;3.38;;
51560;SDS011;37654;51.262;17.058;2023-03-13T10:42:18;11.98;;;3.47;;
51560;SDS011;37654;51.262;17.058;2023-03-13T10:44:44;17.95;;;3.58;;
51560;SDS011;37654;51.262;17.058;2023-03-13T10:47:13;18.48;;;4.38;;
51560;SDS011;37654;51.262;17.058;2023-03-13T10:49:46;16.65;;;4.03;;
51560;SDS011;37654;51.262;17.058;2023-03-13T10:52:25;20.77;;;4.35;;
51560;SDS011;37654;51.262;17.058;2023-03-13T10:54:51;13.40;;;3.55;;
51560;SDS011;37654;51.262;17.058;2023-03-13T10:59:51;13.88;;;3.85;;
51560;SDS011;37654;51.262;17.058;2023-03-13T11:02:21;19.10;;;4.25;;
51560;SDS011;37654;51.262;17.058;2023-03-13T11:04:47;18.05;;;4.95;;
51560;SDS011;37654;51.262;17.058;2023-03-13T11:07:24;12.57;;;4.10;;
51560;SDS011;37654;51.262;17.058;2023-03-13T11:10:24;13.35;;;3.72;;
51560;SDS011;37654;51.262;17.058;2023-03-13T11:13:14;17.30;;;3.47;;
51560;SDS011;37654;51.262;17.058;2023-03-13T11:18:00;18.33;;;4.10;;
51560;SDS011;37654;51.262;17.058;2023-03-13T11:20:49;10.98;;;4.10;;
51560;SDS011;37654;51.262;17.058;2023-03-13T11:23:17;9.77;;;3.60;;
51560;SDS011;37654;51.262;17.058;2023-03-13T11:31:01;19.52;;;4.70;;
51560;SDS011;37654;51.262;17.058;2023-03-13T11:33:37;22.95;;;5.47;;
51560;SDS011;37654;51.262;17.058;2023-03-13T11:36:11;15.18;;;3.33;;
51560;SDS011;37654;51.262;17.058;2023-03-13T11:38:39;15.20;;;3.60;;
51560;SDS011;37654;51.262;17.058;2023-03-13T11:46:33;22.75;;;4.45;;
51560;SDS011;37654;51.262;17.058;2023-03-13T12:01:34;18.38;;;4.78;;
51560;SDS011;37654;51.262;17.058;2023-03-13T12:06:45;16.55;;;4.95;;
51560;SDS011;37654;51.262;17.058;2023-03-13T12:09:15;15.00;;;3.53;;
51560;SDS011;37654;51.262;17.058;2023-03-13T12:11:47;18.73;;;4.72;;
51560;SDS011;37654;51.262;17.058;2023-03-13T12:14:15;11.95;;;3.20;;
51560;SDS011;37654;51.262;17.058;2023-03-13T12:19:29;9.23;;;3.13;;
51560;SDS011;37654;51.262;17.058;2023-03-13T12:21:57;13.98;;;3.40;;
51560;SDS011;37654;51.262;17.058;2023-03-13T12:24:32;10.52;;;3.33;;
51560;SDS011;37654;51.262;17.058;2023-03-13T12:27:02;12.95;;;3.40;;
51560;SDS011;37654;51.262;17.058;2023-03-13T12:30:18;10.95;;;3.53;;
51560;SDS011;37654;51.262;17.058;2023-03-13T12:32:27;9.38;;;3.03;;
51560;SDS011;37654;51.262;17.058;2023-03-13T12:40:34;7.22;;;2.47;;
51560;SDS011;37654;51.262;17.058;2023-03-13T12:43:09;8.93;;;2.40;;
51560;SDS011;37654;51.262;17.058;2023-03-13T12:45:36;6.05;;;2.50;;
51560;SDS011;37654;51.262;17.058;2023-03-13T13:01:06;5.40;;;2.10;;
51560;SDS011;37654;51.262;17.058;2023-03-13T13:03:33;7.13;;;1.95;;
51560;SDS011;37654;51.262;17.058;2023-03-13T13:08:31;3.45;;;1.50;;
51560;SDS011;37654;51.262;17.058;2023-03-13T13:13:38;2.80;;;1.13;;
51560;SDS011;37654;51.262;17.058;2023-03-13T13:16:04;5.55;;;1.48;;
51560;SDS011;37654;51.262;17.058;2023-03-13T13:18:32;4.82;;;1.55;;
51560;SDS011;37654;51.262;17.058;2023-03-13T13:28:41;3.58;;;1.58;;
51560;SDS011;37654;51.262;17.058;2023-03-13T13:33:47;8.48;;;3.38;;
51560;SDS011;37654;51.262;17.058;2023-03-13T13:36:58;6.87;;;2.60;;
51560;SDS011;37654;51.262;17.058;2023-03-13T13:38:57;20.07;;;5.90;;
51560;SDS011;37654;51.262;17.058;2023-03-13T13:41:24;19.90;;;7.03;;
51560;SDS011;37654;51.262;17.058;2023-03-13T13:44:14;22.77;;;7.05;;
51560;SDS011;37654;51.262;17.058;2023-03-13T13:46:35;14.32;;;3.90;;
51560;SDS011;37654;51.262;17.058;2023-03-13T13:51:29;19.27;;;5.20;;
51560;SDS011;37654;51.262;17.058;2023-03-13T13:53:58;11.88;;;3.63;;
51560;SDS011;37654;51.262;17.058;2023-03-13T14:01:31;8.00;;;3.53;;
51560;SDS011;37654;51.262;17.058;2023-03-13T14:04:09;9.32;;;3.25;;
51560;SDS011;37654;51.262;17.058;2023-03-13T14:06:35;9.95;;;3.35;;
51560;SDS011;37654;51.262;17.058;2023-03-13T14:09:14;8.75;;;3.30;;
51560;SDS011;37654;51.262;17.058;2023-03-13T14:11:40;10.13;;;3.28;;
51560;SDS011;37654;51.262;17.058;2023-03-13T14:14:15;8.32;;;3.80;;
51560;SDS011;37654;51.262;17.058;2023-03-13T14:16:43;6.25;;;3.00;;
51560;SDS011;37654;51.262;17.058;2023-03-13T14:21:50;6.68;;;2.28;;
51560;SDS011;37654;51.262;17.058;2023-03-13T14:24:21;15.45;;;3.75;;
51560;SDS011;37654;51.262;17.058;2023-03-13T14:26:46;8.77;;;3.47;;
51560;SDS011;37654;51.262;17.058;2023-03-13T14:29:15;11.00;;;4.15;;
51560;SDS011;37654;51.262;17.058;2023-03-13T14:31:40;11.32;;;4.50;;
51560;SDS011;37654;51.262;17.058;2023-03-13T14:34:07;10.90;;;4.67;;
51560;SDS011;37654;51.262;17.058;2023-03-13T14:39:45;7.40;;;2.95;;
51560;SDS011;37654;51.262;17.058;2023-03-13T14:42:05;9.60;;;2.92;;
51560;SDS011;37654;51.262;17.058;2023-03-13T14:44:31;11.02;;;2.60;;
51560;SDS011;37654;51.262;17.058;2023-03-13T14:46:59;7.53;;;2.33;;
51560;SDS011;37654;51.262;17.058;2023-03-13T14:49:26;11.43;;;2.67;;
51560;SDS011;37654;51.262;17.058;2023-03-13T14:55:04;7.80;;;2.72;;
51560;SDS011;37654;51.262;17.058;2023-03-13T14:57:12;8.10;;;2.70;;
51560;SDS011;37654;51.262;17.058;2023-03-13T14:59:38;10.82;;;3.00;;
51560;SDS011;37654;51.262;17.058;2023-03-13T15:02:15;9.35;;;2.28;;
51560;SDS011;37654;51.262;17.058;2023-03-13T15:07:17;6.38;;;2.47;;
51560;SDS011;37654;51.262;17.058;2023-03-13T15:09:43;9.77;;;2.85;;
51560;SDS011;37654;51.262;17.058;2023-03-13T15:12:13;13.57;;;4.10;;
51560;SDS011;37654;51.262;17.058;2023-03-13T15:17:09;11.17;;;3.37;;
51560;SDS011;37654;51.262;17.058;2023-03-13T15:19:36;10.10;;;4.03;;
51560;SDS011;37654;51.262;17.058;2023-03-13T15:22:01;9.77;;;3.00;;
51560;SDS011;37654;51.262;17.058;2023-03-13T15:24:26;10.30;;;3.53;;
51560;SDS011;37654;51.262;17.058;2023-03-13T15:26:51;10.93;;;3.22;;
51560;SDS011;37654;51.262;17.058;2023-03-13T15:29:17;9.53;;;3.43;;
51560;SDS011;37654;51.262;17.058;2023-03-13T15:31:42;11.45;;;4.97;;
51560;SDS011;37654;51.262;17.058;2023-03-13T15:34:11;15.10;;;4.50;;
51560;SDS011;37654;51.262;17.058;2023-03-13T15:36:37;9.95;;;4.05;;
51560;SDS011;37654;51.262;17.058;2023-03-13T15:39:08;7.18;;;3.30;;
51560;SDS011;37654;51.262;17.058;2023-03-13T15:41:33;9.73;;;4.07;;
51560;SDS011;37654;51.262;17.058;2023-03-13T15:43:58;6.33;;;2.80;;
51560;SDS011;37654;51.262;17.058;2023-03-13T15:46:24;8.00;;;3.80;;
51560;SDS011;37654;51.262;17.058;2023-03-13T15:48:50;12.43;;;4.00;;
51560;SDS011;37654;51.262;17.058;2023-03-13T15:51:15;9.10;;;3.65;;
51560;SDS011;37654;51.262;17.058;2023-03-13T15:53:41;7.82;;;3.10;;
51560;SDS011;37654;51.262;17.058;2023-03-13T15:56:13;7.55;;;2.88;;
51560;SDS011;37654;51.262;17.058;2023-03-13T15:58:38;5.65;;;2.70;;
51560;SDS011;37654;51.262;17.058;2023-03-13T16:01:04;10.57;;;3.15;;
51560;SDS011;37654;51.262;17.058;2023-03-13T16:03:29;9.93;;;3.47;;
51560;SDS011;37654;51.262;17.058;2023-03-13T16:05:55;10.13;;;4.55;;